FQLC

Lichinga Airport

Lichinga, Mozambique
TAF FQLC 171600Z 1718/1818 VRB03KT 9999 SCT018 BECMG 1806/1808 06008KT BECMG 1812/1814 35006KT TX30/1813Z TN17/1803Z
Issued Valid From Valid To
Oct-17 @ 16:00 UTC
(9 hours ago)
Oct-17 @ 18:00 UTC
(7 hours ago)
Oct-18 @ 18:00 UTC
(in 17 hours)
Oct-17 @ 18:00 to Oct-18 @ 06:00
TAF FQLC 171600Z 1718/1818 VRB03KT 9999 SCT018
Wind Visibility Clouds
Variable at 3 knots 10,000+ meters
  • Scattered at 1,800' AGL
Becoming Oct-18 @ 06:00 to Oct-18 @ 12:00
BECMG 1806/1808 06008KT
Wind Visibility Clouds
60° at 8 knots 10,000+ meters
  • Scattered at 1,800' AGL
Becoming Oct-18 @ 12:00 to Oct-18 @ 18:00
BECMG 1812/1814 35006KT TX30/1813Z TN17/1803Z
Wind Visibility Clouds
350° at 6 knots 10,000+ meters
  • Scattered at 1,800' AGL
TAF FQLC 171600Z 1718/1818 VRB03KT 9999 SCT018 BECMG 1806/1808 06008KT BECMG 1812/1814 35006KT TX30/1813Z TN17/1803Z
Issued Oct-17 @ 16:00 UTC
(9 hours ago)
Valid From Oct-17 @ 18:00 UTC
(7 hours ago)
Valid To Oct-18 @ 18:00 UTC
(in 17 hours)
Oct-17 @ 18:00 - Oct-18 @ 06:00
Wind Visibility
Variable at 3 knots 10,000+ meters
Clouds
  • Scattered at 1,800' AGL
Becoming Oct-18 @ 06:00 - Oct-18 @ 12:00
Wind Visibility
60° at 8 knots 10,000+ meters
Clouds
  • Scattered at 1,800' AGL
Becoming Oct-18 @ 12:00 - Oct-18 @ 18:00
Wind Visibility
350° at 6 knots 10,000+ meters
Clouds
  • Scattered at 1,800' AGL